createdAt,value
2023-04-15T00:00:59.117Z,5.17
2023-04-15T00:10:59.194Z,5.19
2023-04-15T00:20:59.151Z,5.36
2023-04-15T00:30:59.118Z,5.52
2023-04-15T00:40:59.130Z,5.83
2023-04-15T00:50:59.120Z,6.76
2023-04-15T01:00:59.070Z,7.63
2023-04-15T01:10:59.080Z,7.48
2023-04-15T01:20:59.102Z,7.51
2023-04-15T01:30:59.039Z,7.28
2023-04-15T01:40:59.082Z,7.06
2023-04-15T01:50:59.077Z,6.93
2023-04-15T02:00:59.112Z,6.85
2023-04-15T02:10:59.078Z,6.86
2023-04-15T02:20:59.109Z,6.81
2023-04-15T02:30:59.115Z,6.99
2023-04-15T02:40:59.067Z,6.97
2023-04-15T02:50:59.052Z,7
2023-04-15T03:00:59.107Z,7.14
2023-04-15T03:10:59.074Z,7.05
2023-04-15T03:20:59.057Z,7.06
2023-04-15T03:30:59.096Z,7.05
2023-04-15T03:40:59.045Z,6.98
2023-04-15T03:50:59.056Z,7.09
2023-04-15T04:00:59.063Z,6.88
2023-04-15T04:10:59.046Z,6.62
2023-04-15T04:20:59.030Z,6.54
2023-04-15T04:30:59.014Z,6.31
2023-04-15T04:40:59.017Z,6.09
2023-04-15T04:50:59.020Z,5.89
2023-04-15T05:00:59.013Z,5.74
2023-04-15T05:10:59.031Z,5.71
2023-04-15T05:20:59.037Z,5.67
2023-04-15T05:30:59.030Z,5.69
2023-04-15T05:40:59.028Z,5.74
2023-04-15T05:50:59.002Z,5.76
2023-04-15T06:00:58.998Z,5.8
2023-04-15T06:10:58.986Z,5.93
2023-04-15T06:20:59.033Z,6.12
2023-04-15T06:30:58.993Z,6.29
2023-04-15T06:40:59.041Z,6.49
2023-04-15T06:50:59.046Z,6.69
2023-04-15T07:00:59.031Z,6.78
2023-04-15T07:10:59.015Z,6.9
2023-04-15T07:20:59.020Z,6.98
2023-04-15T07:30:59.030Z,7.07
2023-04-15T07:40:59.034Z,7.18
2023-04-15T07:50:59.012Z,7.28
2023-04-15T08:00:58.990Z,7.54
2023-04-15T08:10:58.967Z,7.9
2023-04-15T08:20:58.985Z,8.12
2023-04-15T08:30:59.086Z,8.27
2023-04-15T08:40:58.980Z,8.33
2023-04-15T08:50:58.975Z,8.54
2023-04-15T09:00:59.009Z,8.56
2023-04-15T09:10:58.985Z,8.83
2023-04-15T09:20:58.961Z,9.04
2023-04-15T09:30:59.040Z,9.02
2023-04-15T09:40:58.969Z,9
2023-04-15T09:50:58.967Z,9.15
2023-04-15T10:00:58.935Z,9.28
2023-04-15T10:10:58.978Z,9.47
2023-04-15T10:20:58.976Z,9.72
2023-04-15T10:30:59.025Z,9.88
2023-04-15T10:40:58.933Z,10.08
2023-04-15T10:50:58.951Z,10.06
2023-04-15T11:00:58.941Z,10.06
2023-04-15T11:10:58.947Z,10.23
2023-04-15T11:20:58.959Z,10.32
2023-04-15T11:30:58.944Z,10.47
2023-04-15T11:40:58.947Z,10.49
2023-04-15T11:50:58.901Z,10.51
2023-04-15T12:00:58.944Z,10.69
2023-04-15T12:10:58.953Z,10.68
2023-04-15T12:20:58.926Z,10.87
2023-04-15T12:30:58.937Z,11.06
2023-04-15T12:40:58.909Z,11.16
2023-04-15T12:50:58.884Z,11.21
2023-04-15T13:00:58.839Z,11.48
2023-04-15T13:10:58.863Z,11.64
2023-04-15T13:20:58.965Z,11.69
2023-04-15T13:30:58.900Z,11.92
2023-04-15T13:40:58.874Z,12.1
2023-04-15T13:50:58.846Z,12.18
2023-04-15T14:00:58.827Z,12.19
2023-04-15T14:10:58.905Z,12.15
2023-04-15T14:20:58.871Z,12.25
2023-04-15T14:30:58.923Z,12.41
2023-04-15T14:40:58.842Z,12.25
2023-04-15T14:50:58.757Z,12.09
2023-04-15T15:00:58.807Z,11.85
2023-04-15T15:10:58.813Z,11.88
2023-04-15T15:20:58.783Z,11.47
2023-04-15T15:30:58.852Z,11.2
2023-04-15T15:40:58.767Z,11.07
2023-04-15T15:50:58.813Z,10.97
2023-04-15T16:01:00.399Z,10.78
2023-04-15T16:10:58.769Z,10.73
2023-04-15T16:20:58.752Z,10.66
2023-04-15T16:30:58.753Z,10.52
2023-04-15T16:40:58.794Z,10.39
2023-04-15T16:50:58.734Z,10.22
2023-04-15T17:00:58.751Z,10.1
2023-04-15T17:10:58.744Z,10
2023-04-15T17:20:58.708Z,9.73
2023-04-15T17:30:58.727Z,9.44
2023-04-15T17:40:58.752Z,9.13
2023-04-15T17:50:58.757Z,8.75
2023-04-15T18:00:58.684Z,8.4
2023-04-15T18:10:58.697Z,8.13
2023-04-15T18:20:58.671Z,7.84
2023-04-15T18:30:58.678Z,7.65
2023-04-15T18:40:58.661Z,7.54
2023-04-15T18:50:58.700Z,7.23
2023-04-15T19:00:58.734Z,6.8
2023-04-15T19:10:58.670Z,6.33
2023-04-15T19:20:58.662Z,5.95
2023-04-15T19:30:58.696Z,5.78
2023-04-15T19:40:58.690Z,5.7
2023-04-15T19:50:58.657Z,5.54
2023-04-15T20:00:58.645Z,5.24
2023-04-15T20:10:58.660Z,4.95
2023-04-15T20:20:58.661Z,4.7
2023-04-15T20:30:58.668Z,4.32
2023-04-15T20:40:58.664Z,4.06
2023-04-15T20:50:58.714Z,3.72
2023-04-15T21:00:58.751Z,3.58
2023-04-15T21:10:58.674Z,3.35
2023-04-15T21:20:58.685Z,3.08
2023-04-15T21:30:58.667Z,3.02
2023-04-15T21:40:58.669Z,2.96
2023-04-15T21:50:58.676Z,2.7
2023-04-15T22:00:58.678Z,2.31
2023-04-15T22:10:58.660Z,2.33
2023-04-15T22:20:58.686Z,2.23
2023-04-15T22:30:58.672Z,2.03
2023-04-15T22:40:58.691Z,1.93
2023-04-15T22:50:58.654Z,1.78
2023-04-15T23:00:58.689Z,1.56
2023-04-15T23:10:58.691Z,1.36
2023-04-15T23:20:58.673Z,1.09
2023-04-15T23:31:00.375Z,0.97
2023-04-15T23:40:58.714Z,1.02
2023-04-15T23:50:58.713Z,0.76
